createdAt,value
2019-01-15T00:00:45.283Z,2.70
2019-01-15T00:03:11.946Z,2.43
2019-01-15T00:05:38.474Z,2.57
2019-01-15T00:08:05.023Z,2.20
2019-01-15T00:10:31.556Z,2.37
2019-01-15T00:12:58.119Z,3.13
2019-01-15T00:15:24.675Z,2.60
2019-01-15T00:17:51.224Z,2.40
2019-01-15T00:20:17.752Z,2.97
2019-01-15T00:22:44.302Z,2.53
2019-01-15T00:25:10.849Z,2.47
2019-01-15T00:27:37.413Z,2.77
2019-01-15T00:30:08.816Z,2.63
2019-01-15T00:32:35.342Z,3.00
2019-01-15T00:35:02.895Z,2.17
2019-01-15T00:37:29.449Z,1.90
2019-01-15T00:39:55.995Z,2.77
2019-01-15T00:42:22.530Z,2.13
2019-01-15T00:44:49.085Z,1.87
2019-01-15T00:47:15.622Z,2.50
2019-01-15T00:49:42.163Z,1.93
2019-01-15T00:52:08.711Z,2.10
2019-01-15T00:54:35.259Z,1.90
2019-01-15T00:57:01.815Z,2.10
2019-01-15T00:59:28.428Z,1.80
2019-01-15T01:01:55.004Z,2.10
2019-01-15T01:04:22.116Z,1.67
2019-01-15T01:06:48.687Z,1.80
2019-01-15T01:09:15.232Z,1.83
2019-01-15T01:11:41.763Z,1.60
2019-01-15T01:14:08.308Z,1.50
2019-01-15T01:16:34.856Z,1.97
2019-01-15T01:19:01.394Z,1.50
2019-01-15T01:21:27.945Z,1.47
2019-01-15T01:23:54.493Z,1.60
2019-01-15T01:26:21.023Z,1.80
2019-01-15T01:28:47.575Z,1.70
2019-01-15T01:31:14.120Z,1.53
2019-01-15T01:33:40.692Z,1.70
2019-01-15T01:36:07.222Z,1.60
2019-01-15T01:38:33.760Z,1.63
2019-01-15T01:41:00.303Z,1.97
2019-01-15T01:43:26.843Z,1.73
2019-01-15T01:45:53.402Z,1.73
2019-01-15T01:48:19.939Z,2.07
2019-01-15T01:50:46.493Z,1.47
2019-01-15T01:53:13.063Z,1.60
2019-01-15T01:55:39.603Z,2.23
2019-01-15T01:58:06.146Z,2.00
2019-01-15T02:00:32.799Z,2.07
2019-01-15T02:02:59.331Z,1.90
2019-01-15T02:05:26.083Z,1.47
2019-01-15T02:07:52.619Z,1.70
2019-01-15T02:10:19.272Z,1.90
2019-01-15T02:12:46.111Z,1.70
2019-01-15T02:15:13.959Z,1.97
2019-01-15T02:17:40.607Z,1.43
2019-01-15T02:20:08.466Z,1.80
2019-01-15T02:22:35.006Z,2.00
2019-01-15T02:25:01.663Z,1.97
2019-01-15T02:27:28.605Z,1.80
2019-01-15T02:29:55.147Z,1.90
2019-01-15T02:32:21.703Z,1.93
2019-01-15T02:34:48.235Z,1.83
2019-01-15T02:37:14.788Z,1.93
2019-01-15T02:39:41.320Z,1.60
2019-01-15T02:42:07.908Z,2.43
2019-01-15T02:44:34.444Z,1.60
2019-01-15T02:47:00.983Z,2.27
2019-01-15T02:49:27.537Z,1.57
2019-01-15T02:51:54.080Z,1.90
2019-01-15T02:54:20.617Z,2.13
2019-01-15T02:56:47.163Z,1.80
2019-01-15T02:59:13.725Z,1.97
2019-01-15T03:01:40.356Z,1.97
2019-01-15T03:04:06.912Z,1.73
2019-01-15T03:06:33.456Z,2.23
2019-01-15T03:08:59.994Z,2.07
2019-01-15T03:11:26.542Z,1.77
2019-01-15T03:13:53.078Z,2.40
2019-01-15T03:16:19.623Z,1.77
2019-01-15T03:18:47.679Z,1.80
2019-01-15T03:21:14.504Z,1.90
2019-01-15T03:23:41.046Z,2.20
2019-01-15T03:26:07.595Z,2.50
2019-01-15T03:28:34.130Z,1.67
2019-01-15T03:31:00.686Z,1.93
2019-01-15T03:33:27.203Z,2.03
2019-01-15T03:35:53.752Z,2.13
2019-01-15T03:38:20.332Z,1.70
2019-01-15T03:40:46.884Z,1.53
2019-01-15T03:43:13.420Z,1.97
2019-01-15T03:45:39.981Z,2.10
2019-01-15T03:48:06.512Z,2.07
2019-01-15T03:50:33.053Z,2.10
2019-01-15T03:52:59.595Z,2.80
2019-01-15T03:55:26.135Z,2.30
2019-01-15T03:57:52.701Z,2.60
2019-01-15T04:00:20.445Z,1.90
2019-01-15T04:02:47.205Z,1.63
2019-01-15T04:05:14.841Z,1.73
2019-01-15T04:07:42.285Z,1.77
2019-01-15T04:10:09.034Z,1.47
2019-01-15T04:12:35.572Z,2.40
2019-01-15T04:15:04.059Z,1.90
2019-01-15T04:17:30.599Z,1.43
2019-01-15T04:19:57.148Z,2.20
2019-01-15T04:22:23.699Z,1.40
2019-01-15T04:24:50.251Z,2.00
2019-01-15T04:27:16.795Z,1.47
2019-01-15T04:29:43.339Z,1.70
2019-01-15T04:32:09.888Z,1.90
2019-01-15T04:34:36.438Z,2.20
2019-01-15T04:37:02.987Z,2.00
2019-01-15T04:39:29.519Z,1.80
2019-01-15T04:41:56.073Z,2.00
2019-01-15T04:44:22.616Z,2.97
2019-01-15T04:46:49.156Z,2.07
2019-01-15T04:49:15.696Z,2.30
2019-01-15T04:51:42.245Z,2.30
2019-01-15T04:54:08.776Z,2.00
2019-01-15T04:56:35.551Z,2.27
2019-01-15T04:59:02.096Z,2.50
2019-01-15T05:01:28.636Z,2.10
2019-01-15T05:03:55.187Z,2.50
2019-01-15T05:06:21.731Z,3.07
2019-01-15T05:08:48.278Z,2.80
2019-01-15T05:11:14.816Z,2.80
2019-01-15T05:13:41.358Z,2.97
2019-01-15T05:16:07.903Z,2.60
2019-01-15T05:18:34.451Z,2.80
2019-01-15T05:21:00.991Z,2.40
2019-01-15T05:23:27.539Z,2.17
2019-01-15T05:25:54.087Z,2.50
2019-01-15T05:28:20.628Z,2.60
2019-01-15T05:30:47.159Z,2.93
2019-01-15T05:33:13.719Z,2.90
2019-01-15T05:35:40.259Z,3.17
2019-01-15T05:38:06.807Z,2.77
2019-01-15T05:40:33.508Z,3.47
2019-01-15T05:43:00.093Z,3.20
2019-01-15T05:45:28.539Z,2.80
2019-01-15T05:47:57.004Z,2.60
2019-01-15T05:50:28.177Z,3.10
2019-01-15T05:52:54.734Z,2.70
2019-01-15T05:55:21.278Z,3.27
2019-01-15T05:57:47.883Z,2.80
2019-01-15T06:00:15.301Z,2.67
2019-01-15T06:02:41.992Z,2.53
2019-01-15T06:05:09.675Z,2.27
2019-01-15T06:07:36.207Z,2.13
2019-01-15T06:10:04.678Z,2.43
2019-01-15T06:12:31.208Z,2.33
2019-01-15T06:14:57.760Z,2.43
2019-01-15T06:17:24.298Z,2.17
2019-01-15T06:19:50.850Z,2.40
2019-01-15T06:22:17.667Z,2.30
2019-01-15T06:24:44.210Z,2.43
2019-01-15T06:27:10.759Z,2.60
2019-01-15T06:29:37.312Z,2.70
2019-01-15T06:32:03.963Z,2.60
2019-01-15T06:34:30.534Z,2.30
2019-01-15T06:36:57.078Z,2.40
2019-01-15T06:39:23.631Z,2.27
2019-01-15T06:41:50.377Z,2.90
2019-01-15T06:44:16.929Z,2.40
2019-01-15T06:46:43.759Z,2.77
2019-01-15T06:49:10.309Z,2.77
2019-01-15T06:51:36.845Z,2.20
2019-01-15T06:54:03.397Z,2.60
2019-01-15T06:56:29.946Z,2.57
2019-01-15T06:58:56.497Z,3.43
2019-01-15T07:01:23.039Z,3.17
2019-01-15T07:03:49.904Z,3.20
2019-01-15T07:06:16.751Z,2.70
2019-01-15T07:08:43.300Z,2.60
2019-01-15T07:11:09.840Z,3.40
2019-01-15T07:13:36.379Z,3.33
2019-01-15T07:16:03.837Z,2.90
2019-01-15T07:18:30.378Z,3.70
2019-01-15T07:20:57.426Z,3.20
2019-01-15T07:23:24.275Z,2.60
2019-01-15T07:25:50.814Z,2.50
2019-01-15T07:28:17.359Z,2.77
2019-01-15T07:30:45.209Z,2.70
2019-01-15T07:33:11.799Z,2.80
2019-01-15T07:35:38.419Z,2.50
2019-01-15T07:38:05.071Z,2.30
2019-01-15T07:40:31.616Z,2.30
2019-01-15T07:42:58.169Z,2.43
2019-01-15T07:45:24.729Z,2.10
2019-01-15T07:47:51.264Z,2.27
2019-01-15T07:50:18.520Z,2.93
2019-01-15T07:52:47.325Z,2.57
2019-01-15T07:55:15.024Z,2.50
2019-01-15T07:57:41.571Z,1.97
2019-01-15T08:00:10.041Z,2.73
2019-01-15T08:02:36.587Z,2.67
2019-01-15T08:05:04.530Z,2.40
2019-01-15T08:07:31.072Z,2.27
2019-01-15T08:09:57.627Z,2.20
2019-01-15T08:12:24.159Z,2.90
2019-01-15T08:14:50.723Z,2.73
2019-01-15T08:17:17.263Z,2.90
2019-01-15T08:19:43.820Z,2.50
2019-01-15T08:22:10.363Z,2.63
2019-01-15T08:24:36.901Z,2.87
2019-01-15T08:27:03.559Z,2.60
2019-01-15T08:29:30.097Z,2.50
2019-01-15T08:31:56.647Z,2.50
2019-01-15T08:34:23.183Z,2.90
2019-01-15T08:36:49.729Z,3.00
2019-01-15T08:39:16.259Z,2.87
2019-01-15T08:41:42.804Z,2.80
2019-01-15T08:44:09.335Z,3.27
2019-01-15T08:46:36.186Z,2.47
2019-01-15T08:49:02.921Z,2.70
2019-01-15T08:51:29.675Z,2.60
2019-01-15T08:53:56.511Z,2.60
2019-01-15T08:56:23.067Z,2.50
2019-01-15T08:58:49.604Z,3.00
2019-01-15T09:01:16.146Z,3.07
2019-01-15T09:03:42.759Z,2.70
2019-01-15T09:06:09.311Z,2.53
2019-01-15T09:08:35.858Z,2.93
2019-01-15T09:11:02.914Z,2.40
2019-01-15T09:13:29.583Z,2.23
2019-01-15T09:15:56.135Z,2.57
2019-01-15T09:18:22.684Z,2.60
2019-01-15T09:20:49.243Z,2.67
2019-01-15T09:23:15.783Z,2.23
2019-01-15T09:25:42.454Z,2.50
2019-01-15T09:28:08.990Z,2.90
2019-01-15T09:30:35.543Z,2.33
2019-01-15T09:33:02.287Z,2.53
2019-01-15T09:35:28.820Z,2.40
2019-01-15T09:37:55.568Z,2.30
2019-01-15T09:40:22.611Z,2.60
2019-01-15T09:42:49.251Z,2.13
2019-01-15T09:45:37.574Z,2.10
2019-01-15T09:48:05.927Z,2.37
2019-01-15T09:50:32.467Z,2.40
2019-01-15T09:52:59.515Z,2.30
2019-01-15T09:55:26.056Z,2.23
2019-01-15T09:57:52.616Z,2.13
2019-01-15T10:00:19.257Z,2.10
2019-01-15T10:02:46.211Z,2.70
2019-01-15T10:05:12.751Z,2.63
2019-01-15T10:07:39.301Z,2.13
2019-01-15T10:10:07.443Z,2.30
2019-01-15T10:12:33.992Z,2.27
2019-01-15T10:15:00.526Z,2.10
2019-01-15T10:17:27.081Z,2.60
2019-01-15T10:19:53.628Z,2.40
2019-01-15T10:22:20.174Z,2.40
2019-01-15T10:24:47.312Z,2.40
2019-01-15T10:27:15.062Z,2.30
2019-01-15T10:29:41.904Z,2.50
2019-01-15T10:32:10.553Z,2.40
2019-01-15T10:34:38.787Z,2.50
2019-01-15T10:37:05.634Z,2.23
2019-01-15T10:39:32.175Z,2.50
2019-01-15T10:41:58.741Z,3.00
2019-01-15T10:44:25.275Z,2.30
2019-01-15T10:46:51.822Z,2.40
2019-01-15T10:49:18.372Z,2.23
2019-01-15T10:51:44.920Z,4.07
2019-01-15T10:54:11.771Z,6.83
2019-01-15T10:56:38.326Z,2.77
2019-01-15T10:59:04.880Z,2.10
2019-01-15T11:01:31.411Z,2.50
2019-01-15T11:03:57.980Z,2.30
2019-01-15T11:06:24.519Z,3.00
2019-01-15T11:08:51.065Z,2.47
2019-01-15T11:11:17.595Z,2.37
2019-01-15T11:13:44.199Z,2.77
2019-01-15T11:16:10.923Z,2.23
2019-01-15T11:18:37.488Z,2.47
2019-01-15T11:21:04.028Z,2.30
2019-01-15T11:23:30.572Z,2.40
2019-01-15T11:25:57.112Z,2.40
2019-01-15T11:28:23.657Z,2.60
2019-01-15T11:30:50.194Z,2.73
2019-01-15T11:33:16.747Z,2.40
2019-01-15T11:35:43.298Z,2.40
2019-01-15T11:38:09.836Z,2.53
2019-01-15T11:40:36.475Z,2.53
2019-01-15T11:43:03.027Z,2.30
2019-01-15T11:45:29.654Z,2.37
2019-01-15T11:47:56.214Z,2.10
2019-01-15T11:50:22.749Z,2.60
2019-01-15T11:52:49.599Z,2.37
2019-01-15T11:55:16.137Z,2.37
2019-01-15T11:57:42.696Z,2.47
2019-01-15T12:00:11.142Z,2.10
2019-01-15T12:02:38.333Z,2.50
2019-01-15T12:05:13.479Z,1.90
2019-01-15T12:07:57.290Z,1.97
2019-01-15T12:10:42.177Z,2.03
2019-01-15T12:13:16.775Z,2.20
2019-01-15T12:16:00.203Z,2.57
2019-01-15T12:18:34.412Z,2.90
2019-01-15T12:21:02.846Z,2.97
2019-01-15T12:23:37.317Z,3.80
2019-01-15T12:26:05.788Z,3.07
2019-01-15T12:28:43.187Z,3.30
2019-01-15T12:31:17.343Z,2.10
2019-01-15T12:33:48.699Z,3.53
2019-01-15T12:36:26.323Z,2.73
2019-01-15T12:38:54.789Z,2.13
2019-01-15T12:41:26.151Z,2.70
2019-01-15T12:44:06.820Z,2.33
2019-01-15T12:46:53.346Z,2.40
2019-01-15T12:49:24.551Z,2.67
2019-01-15T12:51:55.908Z,2.77
2019-01-15T12:54:33.107Z,2.80
2019-01-15T12:57:04.241Z,2.60
2019-01-15T12:59:49.527Z,3.17
2019-01-15T13:02:17.964Z,3.10
2019-01-15T13:04:46.419Z,3.07
2019-01-15T13:07:24.048Z,3.17
2019-01-15T13:09:52.494Z,2.93
2019-01-15T13:12:37.767Z,2.77
2019-01-15T13:15:13.346Z,2.33
2019-01-15T13:17:41.898Z,2.87
2019-01-15T13:20:11.968Z,2.40
2019-01-15T13:22:40.430Z,2.93
2019-01-15T13:25:11.511Z,3.47
2019-01-15T13:27:46.115Z,3.50
2019-01-15T13:30:14.782Z,3.60
2019-01-15T13:32:43.227Z,2.97
2019-01-15T13:35:17.571Z,2.57
2019-01-15T13:37:48.899Z,2.47
2019-01-15T13:40:33.864Z,2.70
2019-01-15T13:43:17.623Z,2.87
2019-01-15T13:46:00.711Z,2.93
2019-01-15T13:48:40.429Z,3.00
2019-01-15T13:51:08.879Z,2.67
2019-01-15T13:53:55.605Z,2.40
2019-01-15T13:56:26.983Z,3.37
2019-01-15T13:58:55.439Z,3.30
2019-01-15T14:01:40.327Z,3.00
2019-01-15T14:04:27.207Z,3.17
2019-01-15T14:06:58.555Z,3.27
2019-01-15T14:09:27.004Z,2.73
2019-01-15T14:11:55.455Z,3.90
2019-01-15T14:14:23.901Z,3.53
2019-01-15T14:17:01.551Z,3.40
2019-01-15T14:19:36.093Z,3.53
2019-01-15T14:22:11.015Z,3.97
2019-01-15T14:24:39.462Z,3.00
2019-01-15T14:27:10.817Z,3.50
2019-01-15T14:29:39.293Z,3.27
2019-01-15T14:32:10.875Z,3.40
2019-01-15T14:34:56.065Z,3.83
2019-01-15T14:37:28.002Z,3.77
2019-01-15T14:40:13.479Z,4.10
2019-01-15T14:42:50.924Z,3.40
2019-01-15T14:45:36.515Z,3.57
2019-01-15T14:48:08.096Z,2.93
2019-01-15T14:50:36.551Z,3.10
2019-01-15T14:53:05.293Z,3.43
2019-01-15T14:55:39.685Z,3.23
2019-01-15T14:58:14.079Z,4.03
2019-01-15T15:00:42.528Z,3.83
2019-01-15T15:03:23.144Z,3.70
2019-01-15T15:05:54.332Z,3.70
2019-01-15T15:08:22.771Z,3.70
2019-01-15T15:10:59.951Z,4.00
2019-01-15T15:13:34.394Z,4.50
2019-01-15T15:16:05.547Z,3.93
2019-01-15T15:18:36.787Z,3.70
2019-01-15T15:21:21.852Z,3.90
2019-01-15T15:23:59.438Z,3.57
2019-01-15T15:26:30.576Z,3.50
2019-01-15T15:29:01.758Z,3.53
2019-01-15T15:31:46.756Z,3.40
2019-01-15T15:34:21.173Z,3.07
2019-01-15T15:36:49.624Z,3.10
2019-01-15T15:39:36.333Z,3.03
2019-01-15T15:42:17.107Z,3.40
2019-01-15T15:44:45.548Z,2.93
2019-01-15T15:47:25.984Z,3.13
2019-01-15T15:50:11.195Z,3.30
2019-01-15T15:52:42.531Z,3.13
2019-01-15T15:55:27.541Z,2.93
2019-01-15T15:57:59.079Z,3.53
2019-01-15T16:00:33.585Z,3.63
2019-01-15T16:03:13.892Z,3.63
2019-01-15T16:06:00.704Z,4.07
2019-01-15T16:08:32.068Z,3.80
2019-01-15T16:11:17.300Z,2.73
2019-01-15T16:13:45.765Z,3.50
2019-01-15T16:16:30.756Z,3.53
2019-01-15T16:19:05.316Z,3.43
2019-01-15T16:21:40.033Z,3.97
2019-01-15T16:24:08.487Z,3.73
2019-01-15T16:26:53.639Z,3.57
2019-01-15T16:29:24.995Z,3.17
2019-01-15T16:31:53.533Z,3.37
2019-01-15T16:34:24.832Z,3.37
2019-01-15T16:37:11.689Z,3.20
2019-01-15T16:39:46.063Z,3.30
2019-01-15T16:42:29.709Z,4.10
2019-01-15T16:45:03.909Z,4.67
2019-01-15T16:47:48.860Z,3.90
2019-01-15T16:50:35.642Z,3.73
2019-01-15T16:53:07.004Z,3.00
2019-01-15T16:55:52.208Z,3.37
2019-01-15T16:58:39.176Z,2.77
2019-01-15T17:01:07.618Z,3.27
2019-01-15T17:03:36.083Z,3.57
2019-01-15T17:06:10.869Z,3.50
2019-01-15T17:08:54.572Z,4.10
2019-01-15T17:11:28.820Z,3.47
2019-01-15T17:14:00.408Z,3.20
2019-01-15T17:16:33.597Z,3.87
2019-01-15T17:19:01.903Z,3.53
2019-01-15T17:21:47.224Z,4.90
2019-01-15T17:24:15.690Z,4.77
2019-01-15T17:26:49.980Z,5.10
2019-01-15T17:29:35.360Z,4.53
2019-01-15T17:32:03.809Z,4.10
2019-01-15T17:34:41.195Z,4.83
2019-01-15T17:37:09.644Z,4.30
2019-01-15T17:39:43.808Z,3.40
2019-01-15T17:42:24.500Z,4.37
2019-01-15T17:45:07.971Z,4.80
2019-01-15T17:47:39.091Z,4.60
2019-01-15T17:50:09.735Z,4.23
2019-01-15T17:52:43.550Z,4.70
2019-01-15T17:55:11.239Z,4.63
2019-01-15T17:57:45.839Z,4.83
2019-01-15T18:00:20.412Z,4.30
2019-01-15T18:02:48.872Z,4.13
2019-01-15T18:05:20.239Z,3.83
2019-01-15T18:07:51.580Z,3.50
2019-01-15T18:10:28.764Z,4.40
2019-01-15T18:12:57.210Z,3.70
2019-01-15T18:15:31.512Z,4.10
2019-01-15T18:18:06.088Z,6.37
2019-01-15T18:20:43.511Z,3.80
2019-01-15T18:23:11.947Z,3.87
2019-01-15T18:25:40.418Z,3.80
2019-01-15T18:28:08.873Z,5.07
2019-01-15T18:30:37.322Z,4.70
2019-01-15T18:33:23.527Z,3.63
2019-01-15T18:35:55.001Z,3.40
2019-01-15T18:38:23.487Z,4.07
2019-01-15T18:41:08.690Z,3.77
2019-01-15T18:43:40.045Z,3.80
2019-01-15T18:46:11.373Z,3.80
2019-01-15T18:48:45.596Z,4.37
2019-01-15T18:51:23.219Z,3.90
2019-01-15T18:54:08.399Z,4.60
2019-01-15T18:56:45.917Z,4.33
2019-01-15T18:59:14.370Z,3.77
2019-01-15T19:01:54.731Z,3.97
2019-01-15T19:04:29.381Z,4.70
2019-01-15T19:07:06.720Z,4.60
2019-01-15T19:09:41.208Z,4.93
2019-01-15T19:12:24.936Z,4.60
2019-01-15T19:15:10.173Z,3.77
2019-01-15T19:17:57.648Z,3.77
2019-01-15T19:20:29.000Z,3.80
2019-01-15T19:22:57.431Z,3.77
2019-01-15T19:25:42.807Z,3.60
2019-01-15T19:28:20.219Z,3.53
2019-01-15T19:30:48.695Z,4.53
2019-01-15T19:33:17.161Z,3.80
2019-01-15T19:35:57.811Z,4.00
2019-01-15T19:38:29.157Z,3.87
2019-01-15T19:41:16.056Z,3.20
2019-01-15T19:43:47.597Z,3.93
2019-01-15T19:46:16.071Z,4.33
2019-01-15T19:48:47.175Z,3.70
2019-01-15T19:51:30.607Z,4.70
2019-01-15T19:54:08.099Z,3.37
2019-01-15T19:59:31.618Z,3.97
2019-01-15T20:02:09.091Z,3.33
2019-01-15T20:04:40.205Z,3.80
2019-01-15T20:07:23.982Z,3.33
2019-01-15T20:10:03.915Z,3.33
2019-01-15T20:12:38.235Z,3.90
2019-01-15T20:15:24.684Z,3.20
2019-01-15T20:18:11.413Z,3.37
2019-01-15T20:20:52.239Z,3.27
2019-01-15T20:23:32.607Z,3.30
2019-01-15T20:26:13.242Z,3.37
2019-01-15T20:29:02.271Z,3.57
2019-01-15T20:31:34.067Z,3.83
2019-01-15T20:34:19.169Z,3.57
2019-01-15T20:37:00.941Z,3.50
2019-01-15T20:39:40.199Z,3.70
2019-01-15T20:42:14.342Z,3.27
2019-01-15T20:44:45.468Z,3.03
2019-01-15T20:47:30.835Z,3.07
2019-01-15T20:50:15.852Z,3.67
2019-01-15T20:52:44.305Z,4.13
2019-01-15T20:55:31.683Z,3.50
2019-01-15T20:58:09.355Z,3.60
2019-01-15T21:00:54.504Z,3.53
2019-01-15T21:03:22.971Z,3.23
2019-01-15T21:05:51.436Z,3.23
2019-01-15T21:08:29.095Z,3.17
2019-01-15T21:11:00.524Z,3.30
2019-01-15T21:13:48.263Z,3.70
2019-01-15T21:16:31.531Z,3.10
2019-01-15T21:19:00.059Z,3.33
2019-01-15T21:21:45.048Z,3.50
2019-01-15T21:24:22.652Z,3.13
2019-01-15T21:26:54.039Z,3.10
2019-01-15T21:29:22.512Z,3.17
2019-01-15T21:32:07.562Z,3.37
2019-01-15T21:34:52.932Z,2.90
2019-01-15T21:37:21.399Z,3.30
2019-01-15T21:40:04.851Z,3.23
2019-01-15T21:42:51.180Z,3.10
2019-01-15T21:45:35.056Z,3.23
2019-01-15T21:48:03.576Z,4.00
2019-01-15T21:50:32.043Z,3.60
2019-01-15T21:53:17.222Z,3.00
2019-01-15T21:55:57.695Z,2.73
2019-01-15T21:58:26.159Z,3.20
2019-01-15T22:01:00.687Z,3.17
2019-01-15T22:03:29.132Z,3.77
2019-01-15T22:06:14.158Z,3.30
2019-01-15T22:08:57.910Z,3.93
2019-01-15T22:11:26.448Z,3.40
2019-01-15T22:14:11.811Z,3.30
2019-01-15T22:16:43.160Z,3.60
2019-01-15T22:19:23.568Z,3.07
2019-01-15T22:21:54.896Z,3.33
2019-01-15T22:24:26.072Z,3.13
2019-01-15T22:27:03.710Z,2.93
2019-01-15T22:29:32.170Z,3.07
2019-01-15T22:32:00.615Z,3.50
2019-01-15T22:34:29.069Z,3.07
2019-01-15T22:37:00.399Z,3.37
2019-01-15T22:39:28.886Z,3.00
2019-01-15T22:41:57.339Z,2.87
2019-01-15T22:44:43.972Z,2.87
2019-01-15T22:47:29.215Z,3.17
2019-01-15T22:50:06.459Z,2.90
2019-01-15T22:52:34.900Z,2.30
2019-01-15T22:55:03.350Z,2.83
2019-01-15T22:57:48.659Z,3.60
2019-01-15T23:00:45.249Z,2.97
2019-01-15T23:03:13.707Z,3.57
2019-01-15T23:05:42.186Z,3.13
2019-01-15T23:08:13.435Z,3.00
2019-01-15T23:10:41.888Z,2.90
2019-01-15T23:13:10.332Z,3.03
2019-01-15T23:15:41.575Z,2.90
2019-01-15T23:18:12.943Z,3.07
2019-01-15T23:20:41.395Z,3.17
2019-01-15T23:23:26.369Z,2.90
2019-01-15T23:25:54.831Z,2.43
2019-01-15T23:28:26.197Z,3.10
2019-01-15T23:30:54.756Z,2.40
2019-01-15T23:33:38.234Z,2.83
2019-01-15T23:36:23.464Z,3.13
2019-01-15T23:38:58.023Z,3.20
2019-01-15T23:41:38.675Z,2.83
2019-01-15T23:44:15.914Z,2.93
2019-01-15T23:46:47.020Z,4.60
2019-01-15T23:49:15.465Z,2.77
2019-01-15T23:51:43.924Z,2.30
2019-01-15T23:54:18.546Z,2.80
2019-01-15T23:56:47.015Z,2.70
2019-01-15T23:59:27.396Z,3.10
